sensor_id;sensor_type;location;lat;lon;timestamp;pressure;altitude;pressure_sealevel;temperature;humidity
62697;BME280;48761;42.680;23.312;2024-02-15T00:00:26;95202.09;;;4.77;64.22
62697;BME280;48761;42.680;23.312;2024-02-15T00:02:52;95198.19;;;4.43;65.36
62697;BME280;48761;42.680;23.312;2024-02-15T00:05:18;95214.53;;;4.74;64.73
62697;BME280;48761;42.680;23.312;2024-02-15T00:07:44;95206.63;;;4.51;65.48
62697;BME280;48761;42.680;23.312;2024-02-15T00:10:10;95210.31;;;4.47;65.00
62697;BME280;48761;42.680;23.312;2024-02-15T00:12:36;95212.59;;;4.34;65.47
62697;BME280;48761;42.680;23.312;2024-02-15T00:15:02;95215.22;;;4.56;65.17
62697;BME280;48761;42.680;23.312;2024-02-15T00:17:28;95215.03;;;4.39;65.83
62697;BME280;48761;42.680;23.312;2024-02-15T00:19:55;95213.50;;;4.33;65.94
62697;BME280;48761;42.680;23.312;2024-02-15T00:22:21;95203.25;;;4.25;66.23
62697;BME280;48761;42.680;23.312;2024-02-15T00:24:47;95218.03;;;4.52;65.11
62697;BME280;48761;42.680;23.312;2024-02-15T00:27:13;95203.94;;;4.30;66.33
62697;BME280;48761;42.680;23.312;2024-02-15T00:29:39;95212.16;;;4.45;65.56
62697;BME280;48761;42.680;23.312;2024-02-15T00:32:06;95200.88;;;4.19;65.82
62697;BME280;48761;42.680;23.312;2024-02-15T00:34:32;95219.50;;;4.59;65.07
62697;BME280;48761;42.680;23.312;2024-02-15T00:36:58;95214.81;;;4.66;64.93
62697;BME280;48761;42.680;23.312;2024-02-15T00:39:24;95224.41;;;4.46;65.55
62697;BME280;48761;42.680;23.312;2024-02-15T00:41:50;95221.72;;;4.70;64.54
62697;BME280;48761;42.680;23.312;2024-02-15T00:44:16;95201.97;;;4.35;64.94
62697;BME280;48761;42.680;23.312;2024-02-15T00:46:42;95216.41;;;4.25;65.41
62697;BME280;48761;42.680;23.312;2024-02-15T00:49:08;95210.94;;;4.31;65.32
62697;BME280;48761;42.680;23.312;2024-02-15T00:51:35;95199.41;;;4.11;65.53
62697;BME280;48761;42.680;23.312;2024-02-15T00:54:02;95221.19;;;4.37;65.03
62697;BME280;48761;42.680;23.312;2024-02-15T00:56:28;95216.78;;;4.60;64.82
62697;BME280;48761;42.680;23.312;2024-02-15T00:58:54;95225.25;;;4.69;64.99
62697;BME280;48761;42.680;23.312;2024-02-15T01:01:20;95219.59;;;4.78;64.25
62697;BME280;48761;42.680;23.312;2024-02-15T01:03:46;95221.84;;;4.44;64.94
62697;BME280;48761;42.680;23.312;2024-02-15T01:06:12;95207.00;;;4.42;64.72
62697;BME280;48761;42.680;23.312;2024-02-15T01:08:38;95207.97;;;4.62;64.67
62697;BME280;48761;42.680;23.312;2024-02-15T01:11:04;95213.97;;;4.43;64.90
62697;BME280;48761;42.680;23.312;2024-02-15T01:13:31;95227.09;;;4.67;64.53
62697;BME280;48761;42.680;23.312;2024-02-15T01:15:57;95212.50;;;4.35;64.84
62697;BME280;48761;42.680;23.312;2024-02-15T01:18:23;95167.56;;;4.18;64.74
62697;BME280;48761;42.680;23.312;2024-02-15T01:20:49;95190.47;;;4.15;64.60
62697;BME280;48761;42.680;23.312;2024-02-15T01:23:15;95219.13;;;4.46;64.92
62697;BME280;48761;42.680;23.312;2024-02-15T01:25:41;95202.53;;;4.44;64.59
62697;BME280;48761;42.680;23.312;2024-02-15T01:28:07;95199.31;;;4.14;65.35
62697;BME280;48761;42.680;23.312;2024-02-15T01:30:33;95205.84;;;4.49;64.70
62697;BME280;48761;42.680;23.312;2024-02-15T01:32:59;95213.00;;;4.45;64.55
62697;BME280;48761;42.680;23.312;2024-02-15T01:35:27;95192.50;;;3.85;65.41
62697;BME280;48761;42.680;23.312;2024-02-15T01:37:53;95188.78;;;4.14;65.89
62697;BME280;48761;42.680;23.312;2024-02-15T01:40:19;95179.34;;;4.09;65.01
62697;BME280;48761;42.680;23.312;2024-02-15T01:42:45;95184.00;;;4.24;64.80
62697;BME280;48761;42.680;23.312;2024-02-15T01:45:11;95180.91;;;4.35;64.50
62697;BME280;48761;42.680;23.312;2024-02-15T01:47:38;95175.16;;;4.48;64.07
62697;BME280;48761;42.680;23.312;2024-02-15T01:50:04;95217.44;;;4.45;64.35
62697;BME280;48761;42.680;23.312;2024-02-15T01:52:30;95223.78;;;4.17;64.98
62697;BME280;48761;42.680;23.312;2024-02-15T01:54:57;95218.25;;;4.45;64.77
62697;BME280;48761;42.680;23.312;2024-02-15T01:57:23;95216.78;;;4.60;64.32
62697;BME280;48761;42.680;23.312;2024-02-15T01:59:51;95208.84;;;4.62;64.71
62697;BME280;48761;42.680;23.312;2024-02-15T02:02:20;95211.59;;;4.36;64.49
62697;BME280;48761;42.680;23.312;2024-02-15T02:04:48;95220.97;;;4.21;65.50
62697;BME280;48761;42.680;23.312;2024-02-15T02:07:14;95222.91;;;4.16;65.16
62697;BME280;48761;42.680;23.312;2024-02-15T02:09:40;95205.69;;;4.07;65.52
62697;BME280;48761;42.680;23.312;2024-02-15T02:12:06;95188.09;;;3.85;66.18
62697;BME280;48761;42.680;23.312;2024-02-15T02:14:33;95228.78;;;4.23;65.68
62697;BME280;48761;42.680;23.312;2024-02-15T02:17:13;95215.31;;;4.31;65.83
62697;BME280;48761;42.680;23.312;2024-02-15T02:19:40;95188.72;;;3.92;65.67
62697;BME280;48761;42.680;23.312;2024-02-15T02:22:06;95218.31;;;3.99;66.22
62697;BME280;48761;42.680;23.312;2024-02-15T02:24:33;95204.19;;;4.01;65.95
62697;BME280;48761;42.680;23.312;2024-02-15T02:27:01;95206.00;;;3.99;65.71
62697;BME280;48761;42.680;23.312;2024-02-15T02:29:28;95200.56;;;3.80;66.13
62697;BME280;48761;42.680;23.312;2024-02-15T02:31:54;95234.41;;;4.13;66.21
62697;BME280;48761;42.680;23.312;2024-02-15T02:34:20;95233.56;;;4.35;66.45
62697;BME280;48761;42.680;23.312;2024-02-15T02:36:45;95223.53;;;4.23;65.45
62697;BME280;48761;42.680;23.312;2024-02-15T02:39:11;95212.09;;;4.00;66.20
62697;BME280;48761;42.680;23.312;2024-02-15T02:41:37;95234.63;;;4.07;66.70
62697;BME280;48761;42.680;23.312;2024-02-15T02:44:03;95213.84;;;4.01;66.45
62697;BME280;48761;42.680;23.312;2024-02-15T02:46:29;95230.31;;;4.29;66.60
62697;BME280;48761;42.680;23.312;2024-02-15T02:48:55;95239.28;;;4.00;66.93
62697;BME280;48761;42.680;23.312;2024-02-15T02:51:21;95200.56;;;3.80;66.35
62697;BME280;48761;42.680;23.312;2024-02-15T02:53:47;95247.00;;;4.29;66.21
62697;BME280;48761;42.680;23.312;2024-02-15T02:56:14;95243.50;;;4.04;66.16
62697;BME280;48761;42.680;23.312;2024-02-15T02:58:40;95222.84;;;4.18;66.42
62697;BME280;48761;42.680;23.312;2024-02-15T03:01:06;95239.44;;;4.20;65.94
62697;BME280;48761;42.680;23.312;2024-02-15T03:03:33;95223.13;;;4.10;66.62
62697;BME280;48761;42.680;23.312;2024-02-15T03:05:59;95247.25;;;3.99;66.68
62697;BME280;48761;42.680;23.312;2024-02-15T03:08:24;95245.06;;;4.33;65.99
62697;BME280;48761;42.680;23.312;2024-02-15T03:10:50;95232.78;;;3.87;66.49
62697;BME280;48761;42.680;23.312;2024-02-15T03:13:17;95241.50;;;3.87;67.13
62697;BME280;48761;42.680;23.312;2024-02-15T03:15:44;95242.59;;;4.06;67.19
62697;BME280;48761;42.680;23.312;2024-02-15T03:18:10;95253.88;;;3.61;67.99
62697;BME280;48761;42.680;23.312;2024-02-15T03:20:39;95256.50;;;3.85;67.55
62697;BME280;48761;42.680;23.312;2024-02-15T03:23:05;95254.38;;;3.95;66.99
62697;BME280;48761;42.680;23.312;2024-02-15T03:25:31;95253.84;;;3.87;67.09
62697;BME280;48761;42.680;23.312;2024-02-15T03:27:58;95256.72;;;4.03;66.46
62697;BME280;48761;42.680;23.312;2024-02-15T03:30:26;95265.78;;;3.96;66.87
62697;BME280;48761;42.680;23.312;2024-02-15T03:32:52;95260.31;;;4.00;67.07
62697;BME280;48761;42.680;23.312;2024-02-15T03:35:21;95267.16;;;4.06;66.41
62697;BME280;48761;42.680;23.312;2024-02-15T03:37:47;95223.69;;;3.72;67.16
62697;BME280;48761;42.680;23.312;2024-02-15T03:40:13;95240.38;;;3.95;66.58
62697;BME280;48761;42.680;23.312;2024-02-15T03:42:39;95253.19;;;3.80;66.99
62697;BME280;48761;42.680;23.312;2024-02-15T03:45:05;95261.09;;;4.04;66.96
62697;BME280;48761;42.680;23.312;2024-02-15T03:47:32;95269.88;;;4.03;67.24
62697;BME280;48761;42.680;23.312;2024-02-15T03:49:58;95245.00;;;3.88;66.80
62697;BME280;48761;42.680;23.312;2024-02-15T03:52:24;95249.53;;;3.84;67.55
62697;BME280;48761;42.680;23.312;2024-02-15T03:54:50;95263.91;;;3.99;67.73
62697;BME280;48761;42.680;23.312;2024-02-15T03:57:16;95245.75;;;3.67;67.91
62697;BME280;48761;42.680;23.312;2024-02-15T03:59:41;95265.88;;;3.92;67.28
62697;BME280;48761;42.680;23.312;2024-02-15T04:02:07;95257.28;;;3.63;67.32
62697;BME280;48761;42.680;23.312;2024-02-15T04:04:33;95242.47;;;3.61;67.09
62697;BME280;48761;42.680;23.312;2024-02-15T04:06:59;95240.66;;;3.37;67.71
62697;BME280;48761;42.680;23.312;2024-02-15T04:09:25;95266.09;;;3.62;67.58
62697;BME280;48761;42.680;23.312;2024-02-15T04:11:51;95241.34;;;3.68;66.79
62697;BME280;48761;42.680;23.312;2024-02-15T04:14:18;95240.13;;;3.53;67.68
62697;BME280;48761;42.680;23.312;2024-02-15T04:16:44;95266.31;;;3.80;67.02
62697;BME280;48761;42.680;23.312;2024-02-15T04:19:11;95241.00;;;3.53;67.83
62697;BME280;48761;42.680;23.312;2024-02-15T04:21:37;95256.25;;;3.43;68.55
62697;BME280;48761;42.680;23.312;2024-02-15T04:24:03;95276.50;;;3.65;67.80
62697;BME280;48761;42.680;23.312;2024-02-15T04:26:29;95269.47;;;3.66;67.91
62697;BME280;48761;42.680;23.312;2024-02-15T04:28:55;95273.88;;;3.89;67.11
62697;BME280;48761;42.680;23.312;2024-02-15T04:31:21;95258.34;;;3.83;66.56
62697;BME280;48761;42.680;23.312;2024-02-15T04:33:47;95275.16;;;3.79;66.77
62697;BME280;48761;42.680;23.312;2024-02-15T04:36:13;95269.41;;;3.67;67.70
62697;BME280;48761;42.680;23.312;2024-02-15T04:38:39;95268.69;;;3.64;67.50
62697;BME280;48761;42.680;23.312;2024-02-15T04:41:05;95250.31;;;3.62;67.49
62697;BME280;48761;42.680;23.312;2024-02-15T04:43:31;95275.78;;;3.86;66.99
62697;BME280;48761;42.680;23.312;2024-02-15T04:45:57;95283.25;;;3.73;67.71
62697;BME280;48761;42.680;23.312;2024-02-15T04:48:23;95280.91;;;3.39;68.56
62697;BME280;48761;42.680;23.312;2024-02-15T04:50:49;95283.78;;;3.31;68.95
62697;BME280;48761;42.680;23.312;2024-02-15T04:53:15;95286.25;;;3.62;68.50
62697;BME280;48761;42.680;23.312;2024-02-15T04:55:41;95280.50;;;3.26;68.68
62697;BME280;48761;42.680;23.312;2024-02-15T04:58:07;95292.50;;;3.33;68.56
62697;BME280;48761;42.680;23.312;2024-02-15T05:00:33;95294.75;;;3.44;68.73
62697;BME280;48761;42.680;23.312;2024-02-15T05:02:59;95295.25;;;3.80;67.47
62697;BME280;48761;42.680;23.312;2024-02-15T05:05:25;95281.66;;;3.68;68.05
62697;BME280;48761;42.680;23.312;2024-02-15T05:07:51;95260.47;;;3.47;68.03
62697;BME280;48761;42.680;23.312;2024-02-15T05:10:17;95296.78;;;3.36;68.77
62697;BME280;48761;42.680;23.312;2024-02-15T05:12:43;95299.47;;;3.60;68.51
62697;BME280;48761;42.680;23.312;2024-02-15T05:15:09;95296.38;;;3.49;67.97
62697;BME280;48761;42.680;23.312;2024-02-15T05:17:39;95317.06;;;3.84;67.74
62697;BME280;48761;42.680;23.312;2024-02-15T05:20:07;95303.00;;;3.33;68.66
62697;BME280;48761;42.680;23.312;2024-02-15T05:22:33;95279.63;;;3.25;68.57
62697;BME280;48761;42.680;23.312;2024-02-15T05:24:59;95312.63;;;3.60;68.33
62697;BME280;48761;42.680;23.312;2024-02-15T05:27:25;95319.19;;;3.46;68.54
62697;BME280;48761;42.680;23.312;2024-02-15T05:29:51;95291.72;;;3.30;68.70
62697;BME280;48761;42.680;23.312;2024-02-15T05:32:17;95317.06;;;3.58;68.73
62697;BME280;48761;42.680;23.312;2024-02-15T05:34:44;95324.84;;;3.61;68.41
62697;BME280;48761;42.680;23.312;2024-02-15T05:37:10;95300.91;;;3.43;67.18
62697;BME280;48761;42.680;23.312;2024-02-15T05:39:36;95323.94;;;3.62;68.25
62697;BME280;48761;42.680;23.312;2024-02-15T05:42:02;95322.97;;;3.65;67.95
62697;BME280;48761;42.680;23.312;2024-02-15T05:44:28;95295.00;;;3.11;68.54
62697;BME280;48761;42.680;23.312;2024-02-15T05:46:54;95330.06;;;3.63;68.18
62697;BME280;48761;42.680;23.312;2024-02-15T05:49:21;95318.66;;;3.62;67.17
62697;BME280;48761;42.680;23.312;2024-02-15T05:51:46;95344.06;;;3.63;67.70
62697;BME280;48761;42.680;23.312;2024-02-15T05:54:12;95340.25;;;3.72;67.44
62697;BME280;48761;42.680;23.312;2024-02-15T05:56:38;95342.50;;;3.57;68.04
62697;BME280;48761;42.680;23.312;2024-02-15T05:59:04;95335.25;;;3.64;67.81
62697;BME280;48761;42.680;23.312;2024-02-15T06:01:30;95327.78;;;3.52;67.99
62697;BME280;48761;42.680;23.312;2024-02-15T06:03:56;95340.91;;;3.53;67.96
62697;BME280;48761;42.680;23.312;2024-02-15T06:06:22;95344.97;;;3.62;67.78
62697;BME280;48761;42.680;23.312;2024-02-15T06:08:48;95342.28;;;3.89;67.13
62697;BME280;48761;42.680;23.312;2024-02-15T06:11:18;95353.47;;;3.70;67.81
62697;BME280;48761;42.680;23.312;2024-02-15T06:13:44;95357.22;;;3.63;67.56
62697;BME280;48761;42.680;23.312;2024-02-15T06:16:10;95341.00;;;3.50;67.55
62697;BME280;48761;42.680;23.312;2024-02-15T06:18:36;95359.56;;;3.45;68.38
62697;BME280;48761;42.680;23.312;2024-02-15T06:21:02;95365.47;;;3.52;68.53
62697;BME280;48761;42.680;23.312;2024-02-15T06:23:29;95351.75;;;3.42;68.81
62697;BME280;48761;42.680;23.312;2024-02-15T06:25:56;95370.97;;;3.44;68.74
62697;BME280;48761;42.680;23.312;2024-02-15T06:28:22;95345.47;;;3.21;69.28
62697;BME280;48761;42.680;23.312;2024-02-15T06:30:48;95364.84;;;3.44;68.65
62697;BME280;48761;42.680;23.312;2024-02-15T06:33:14;95375.78;;;3.58;68.84
62697;BME280;48761;42.680;23.312;2024-02-15T06:35:40;95373.72;;;3.41;69.35
62697;BME280;48761;42.680;23.312;2024-02-15T06:38:06;95364.59;;;3.77;68.28
62697;BME280;48761;42.680;23.312;2024-02-15T06:40:32;95375.41;;;3.95;68.08
62697;BME280;48761;42.680;23.312;2024-02-15T06:42:58;95382.72;;;3.61;67.90
62697;BME280;48761;42.680;23.312;2024-02-15T06:45:24;95362.38;;;3.66;68.72
62697;BME280;48761;42.680;23.312;2024-02-15T06:47:50;95375.34;;;3.45;69.05
62697;BME280;48761;42.680;23.312;2024-02-15T06:50:16;95387.31;;;3.80;68.34
62697;BME280;48761;42.680;23.312;2024-02-15T06:52:42;95384.06;;;3.73;68.23
62697;BME280;48761;42.680;23.312;2024-02-15T06:55:09;95388.03;;;3.85;67.72
62697;BME280;48761;42.680;23.312;2024-02-15T06:57:35;95394.34;;;3.54;68.61
62697;BME280;48761;42.680;23.312;2024-02-15T07:00:04;95370.91;;;3.73;67.72
62697;BME280;48761;42.680;23.312;2024-02-15T07:02:30;95392.09;;;3.68;70.08
62697;BME280;48761;42.680;23.312;2024-02-15T07:04:56;95381.69;;;3.65;68.15
62697;BME280;48761;42.680;23.312;2024-02-15T07:07:22;95360.44;;;3.72;68.08
62697;BME280;48761;42.680;23.312;2024-02-15T07:09:48;95387.53;;;4.96;66.15
62697;BME280;48761;42.680;23.312;2024-02-15T07:12:14;95378.41;;;5.04;65.44
62697;BME280;48761;42.680;23.312;2024-02-15T07:14:40;95365.91;;;5.32;62.87
62697;BME280;48761;42.680;23.312;2024-02-15T07:17:06;95367.78;;;5.29;62.31
62697;BME280;48761;42.680;23.312;2024-02-15T07:19:31;95350.31;;;5.48;62.17
62697;BME280;48761;42.680;23.312;2024-02-15T07:21:57;95369.38;;;5.76;61.57
62697;BME280;48761;42.680;23.312;2024-02-15T07:24:23;95367.31;;;6.04;60.29
62697;BME280;48761;42.680;23.312;2024-02-15T07:26:50;95367.13;;;6.88;60.09
62697;BME280;48761;42.680;23.312;2024-02-15T07:29:15;95350.50;;;6.86;58.03
62697;BME280;48761;42.680;23.312;2024-02-15T07:31:41;95362.84;;;5.85;59.62
62697;BME280;48761;42.680;23.312;2024-02-15T07:34:08;95373.75;;;6.38;59.77
62697;BME280;48761;42.680;23.312;2024-02-15T07:36:34;95353.31;;;6.02;59.51
62697;BME280;48761;42.680;23.312;2024-02-15T07:38:59;95366.53;;;6.82;57.12
62697;BME280;48761;42.680;23.312;2024-02-15T07:41:26;95370.41;;;6.35;58.36
62697;BME280;48761;42.680;23.312;2024-02-15T07:43:53;95369.41;;;7.15;57.27
62697;BME280;48761;42.680;23.312;2024-02-15T07:46:20;95349.84;;;6.80;56.46
62697;BME280;48761;42.680;23.312;2024-02-15T07:48:46;95366.72;;;6.78;56.90
62697;BME280;48761;42.680;23.312;2024-02-15T07:51:13;95368.28;;;7.01;56.31
62697;BME280;48761;42.680;23.312;2024-02-15T07:53:39;95332.94;;;7.22;55.65
62697;BME280;48761;42.680;23.312;2024-02-15T07:56:05;95333.16;;;6.60;56.83
62697;BME280;48761;42.680;23.312;2024-02-15T07:58:31;95357.22;;;7.30;55.42
62697;BME280;48761;42.680;23.312;2024-02-15T08:00:57;95333.81;;;7.03;55.52
62697;BME280;48761;42.680;23.312;2024-02-15T08:03:23;95327.06;;;7.70;54.94
62697;BME280;48761;42.680;23.312;2024-02-15T08:05:53;95339.13;;;7.58;53.68
62697;BME280;48761;42.680;23.312;2024-02-15T08:08:19;95346.09;;;8.12;53.27
62697;BME280;48761;42.680;23.312;2024-02-15T08:10:45;95352.13;;;7.62;55.33
62697;BME280;48761;42.680;23.312;2024-02-15T08:13:11;95327.88;;;7.17;54.72
62697;BME280;48761;42.680;23.312;2024-02-15T08:15:39;95356.75;;;8.11;54.32
62697;BME280;48761;42.680;23.312;2024-02-15T08:18:05;95356.38;;;7.47;54.07
62697;BME280;48761;42.680;23.312;2024-02-15T08:20:31;95342.84;;;7.89;53.56
62697;BME280;48761;42.680;23.312;2024-02-15T08:22:57;95328.78;;;8.23;53.62
62697;BME280;48761;42.680;23.312;2024-02-15T08:25:23;95350.59;;;8.10;53.26
62697;BME280;48761;42.680;23.312;2024-02-15T08:27:49;95335.09;;;8.20;52.68
62697;BME280;48761;42.680;23.312;2024-02-15T08:30:16;95349.09;;;7.88;53.11
62697;BME280;48761;42.680;23.312;2024-02-15T08:32:42;95351.13;;;8.69;52.59
62697;BME280;48761;42.680;23.312;2024-02-15T08:35:09;95333.06;;;7.73;53.37
62697;BME280;48761;42.680;23.312;2024-02-15T08:37:36;95343.47;;;7.94;53.36
62697;BME280;48761;42.680;23.312;2024-02-15T08:40:06;95343.00;;;8.04;52.61
62697;BME280;48761;42.680;23.312;2024-02-15T08:42:32;95326.94;;;7.89;53.16
62697;BME280;48761;42.680;23.312;2024-02-15T08:44:58;95338.25;;;8.27;52.31
62697;BME280;48761;42.680;23.312;2024-02-15T08:47:24;95343.16;;;9.17;51.69
62697;BME280;48761;42.680;23.312;2024-02-15T08:49:50;95343.19;;;8.51;52.15
62697;BME280;48761;42.680;23.312;2024-02-15T08:52:16;95343.94;;;8.71;50.90
62697;BME280;48761;42.680;23.312;2024-02-15T08:54:42;95328.72;;;8.40;51.55
62697;BME280;48761;42.680;23.312;2024-02-15T08:57:08;95338.25;;;9.26;50.11
62697;BME280;48761;42.680;23.312;2024-02-15T08:59:33;95343.81;;;9.68;50.01
62697;BME280;48761;42.680;23.312;2024-02-15T09:01:59;95339.06;;;9.12;50.15
62697;BME280;48761;42.680;23.312;2024-02-15T09:04:25;95319.63;;;9.27;49.21
62697;BME280;48761;42.680;23.312;2024-02-15T09:06:52;95331.16;;;9.10;50.65
62697;BME280;48761;42.680;23.312;2024-02-15T09:09:17;95304.75;;;9.08;50.07
62697;BME280;48761;42.680;23.312;2024-02-15T09:11:43;95311.34;;;9.48;49.51
62697;BME280;48761;42.680;23.312;2024-02-15T09:14:09;95337.63;;;9.98;48.81
62697;BME280;48761;42.680;23.312;2024-02-15T09:16:36;95336.44;;;9.73;49.43
62697;BME280;48761;42.680;23.312;2024-02-15T09:19:02;95318.84;;;9.56;49.02
62697;BME280;48761;42.680;23.312;2024-02-15T09:21:28;95323.63;;;10.26;47.74
62697;BME280;48761;42.680;23.312;2024-02-15T09:23:54;95304.00;;;9.68;48.79
62697;BME280;48761;42.680;23.312;2024-02-15T09:26:19;95312.25;;;10.24;47.61
62697;BME280;48761;42.680;23.312;2024-02-15T09:28:45;95272.38;;;9.49;48.92
62697;BME280;48761;42.680;23.312;2024-02-15T09:31:14;95325.50;;;9.33;49.65
62697;BME280;48761;42.680;23.312;2024-02-15T09:33:40;95320.31;;;9.15;49.25
62697;BME280;48761;42.680;23.312;2024-02-15T09:36:07;95312.13;;;9.50;48.26
62697;BME280;48761;42.680;23.312;2024-02-15T09:38:33;95304.22;;;9.80;47.95
62697;BME280;48761;42.680;23.312;2024-02-15T09:40:59;95318.31;;;10.11;47.83
62697;BME280;48761;42.680;23.312;2024-02-15T09:43:25;95311.19;;;9.66;48.30
62697;BME280;48761;42.680;23.312;2024-02-15T09:45:52;95304.47;;;10.35;47.65
62697;BME280;48761;42.680;23.312;2024-02-15T09:48:18;95303.84;;;10.89;47.26
62697;BME280;48761;42.680;23.312;2024-02-15T09:50:45;95296.88;;;10.58;46.23
62697;BME280;48761;42.680;23.312;2024-02-15T09:53:11;95291.16;;;10.35;46.41
62697;BME280;48761;42.680;23.312;2024-02-15T09:55:39;95273.69;;;10.46;45.57
62697;BME280;48761;42.680;23.312;2024-02-15T09:58:05;95284.31;;;10.02;46.10
62697;BME280;48761;42.680;23.312;2024-02-15T10:00:31;95286.50;;;9.95;47.14
62697;BME280;48761;42.680;23.312;2024-02-15T10:02:58;95293.91;;;10.48;45.92
62697;BME280;48761;42.680;23.312;2024-02-15T10:05:25;95291.66;;;9.52;47.99
62697;BME280;48761;42.680;23.312;2024-02-15T10:07:51;95288.88;;;10.00;47.22
62697;BME280;48761;42.680;23.312;2024-02-15T10:10:18;95286.34;;;10.57;46.12
62697;BME280;48761;42.680;23.312;2024-02-15T10:12:51;95272.94;;;10.29;46.34
62697;BME280;48761;42.680;23.312;2024-02-15T10:15:36;95285.47;;;10.71;46.11
62697;BME280;48761;42.680;23.312;2024-02-15T10:18:09;95276.91;;;11.08;45.04
62697;BME280;48761;42.680;23.312;2024-02-15T10:20:36;95265.13;;;11.25;44.55
62697;BME280;48761;42.680;23.312;2024-02-15T10:25:28;95261.59;;;10.84;45.22
62697;BME280;48761;42.680;23.312;2024-02-15T10:28:10;95256.06;;;10.15;45.81
62697;BME280;48761;42.680;23.312;2024-02-15T10:30:43;95245.28;;;11.03;44.95
62697;BME280;48761;42.680;23.312;2024-02-15T10:33:10;95253.06;;;11.47;43.86
62697;BME280;48761;42.680;23.312;2024-02-15T10:35:43;95232.34;;;11.12;44.01
62697;BME280;48761;42.680;23.312;2024-02-15T10:38:10;95254.44;;;10.99;44.68
62697;BME280;48761;42.680;23.312;2024-02-15T10:40:37;95254.88;;;11.06;44.42
62697;BME280;48761;42.680;23.312;2024-02-15T10:43:04;95241.63;;;11.19;44.58
62697;BME280;48761;42.680;23.312;2024-02-15T10:45:30;95250.25;;;11.36;43.97
62697;BME280;48761;42.680;23.312;2024-02-15T10:47:57;95246.41;;;11.68;43.83
62697;BME280;48761;42.680;23.312;2024-02-15T10:50:23;95236.91;;;11.90;43.10
62697;BME280;48761;42.680;23.312;2024-02-15T10:52:57;95215.94;;;11.18;44.40
62697;BME280;48761;42.680;23.312;2024-02-15T10:56:26;95241.00;;;11.01;44.06
62697;BME280;48761;42.680;23.312;2024-02-15T10:58:33;95224.06;;;10.89;44.81
62697;BME280;48761;42.680;23.312;2024-02-15T11:00:59;95232.38;;;11.25;44.44
62697;BME280;48761;42.680;23.312;2024-02-15T11:03:30;95226.34;;;10.80;44.38
62697;BME280;48761;42.680;23.312;2024-02-15T11:06:00;95238.31;;;10.30;46.53
62697;BME280;48761;42.680;23.312;2024-02-15T11:08:28;95227.34;;;10.50;45.73
62697;BME280;48761;42.680;23.312;2024-02-15T11:10:54;95214.41;;;10.73;45.59
62697;BME280;48761;42.680;23.312;2024-02-15T11:13:20;95228.94;;;11.09;44.77
62697;BME280;48761;42.680;23.312;2024-02-15T11:15:47;95226.34;;;10.80;45.07
62697;BME280;48761;42.680;23.312;2024-02-15T11:18:42;95221.06;;;11.21;45.02
62697;BME280;48761;42.680;23.312;2024-02-15T11:21:08;95223.78;;;11.47;44.44
62697;BME280;48761;42.680;23.312;2024-02-15T11:23:34;95216.63;;;10.94;44.38
62697;BME280;48761;42.680;23.312;2024-02-15T11:26:00;95193.38;;;10.55;45.56
62697;BME280;48761;42.680;23.312;2024-02-15T11:30:55;95186.34;;;10.69;45.12
62697;BME280;48761;42.680;23.312;2024-02-15T11:33:34;95216.97;;;10.74;45.17
62697;BME280;48761;42.680;23.312;2024-02-15T11:36:06;95214.38;;;10.87;45.24
62697;BME280;48761;42.680;23.312;2024-02-15T11:38:34;95215.22;;;10.60;45.52
62697;BME280;48761;42.680;23.312;2024-02-15T11:41:05;95195.97;;;10.57;45.66
62697;BME280;48761;42.680;23.312;2024-02-15T11:46:06;95190.69;;;10.70;45.70
62697;BME280;48761;42.680;23.312;2024-02-15T11:48:36;95202.66;;;11.31;45.25
62697;BME280;48761;42.680;23.312;2024-02-15T11:51:02;95207.72;;;11.08;45.62
62697;BME280;48761;42.680;23.312;2024-02-15T11:53:28;95205.63;;;10.85;45.99
62697;BME280;48761;42.680;23.312;2024-02-15T11:56:00;95191.63;;;10.96;45.66
62697;BME280;48761;42.680;23.312;2024-02-15T11:58:26;95202.63;;;10.77;46.13
62697;BME280;48761;42.680;23.312;2024-02-15T12:00:51;95199.16;;;10.90;45.75
62697;BME280;48761;42.680;23.312;2024-02-15T12:03:24;95200.19;;;10.74;46.93
62697;BME280;48761;42.680;23.312;2024-02-15T12:05:50;95198.53;;;11.27;45.53
62697;BME280;48761;42.680;23.312;2024-02-15T12:08:16;95160.31;;;11.15;45.54
62697;BME280;48761;42.680;23.312;2024-02-15T12:10:42;95172.53;;;11.30;45.80
62697;BME280;48761;42.680;23.312;2024-02-15T12:13:08;95187.00;;;11.13;45.63
62697;BME280;48761;42.680;23.312;2024-02-15T12:15:34;95183.50;;;10.85;46.28
62697;BME280;48761;42.680;23.312;2024-02-15T12:18:20;95163.91;;;10.73;46.59
62697;BME280;48761;42.680;23.312;2024-02-15T12:20:46;95181.03;;;10.69;46.90
62697;BME280;48761;42.680;23.312;2024-02-15T12:23:12;95178.84;;;10.89;46.80
62697;BME280;48761;42.680;23.312;2024-02-15T12:25:39;95166.22;;;11.05;46.84
62697;BME280;48761;42.680;23.312;2024-02-15T12:28:04;95193.38;;;11.10;46.88
62697;BME280;48761;42.680;23.312;2024-02-15T12:30:33;95165.06;;;11.23;46.46
62697;BME280;48761;42.680;23.312;2024-02-15T12:33:09;95175.50;;;11.13;46.66
62697;BME280;48761;42.680;23.312;2024-02-15T12:35:35;95179.16;;;11.38;45.75
62697;BME280;48761;42.680;23.312;2024-02-15T12:38:02;95177.84;;;11.17;46.27
62697;BME280;48761;42.680;23.312;2024-02-15T12:40:36;95178.94;;;10.87;46.39
62697;BME280;48761;42.680;23.312;2024-02-15T12:43:07;95176.31;;;11.00;46.78
62697;BME280;48761;42.680;23.312;2024-02-15T12:45:35;95164.56;;;10.90;46.57
62697;BME280;48761;42.680;23.312;2024-02-15T12:48:03;95165.47;;;11.03;46.54
62697;BME280;48761;42.680;23.312;2024-02-15T12:50:30;95161.66;;;11.07;46.24
62697;BME280;48761;42.680;23.312;2024-02-15T12:52:56;95161.53;;;10.96;46.86
62697;BME280;48761;42.680;23.312;2024-02-15T12:55:23;95157.28;;;11.06;46.82
62697;BME280;48761;42.680;23.312;2024-02-15T12:57:53;95141.06;;;10.83;47.22
62697;BME280;48761;42.680;23.312;2024-02-15T13:02:50;95142.25;;;10.37;47.79
62697;BME280;48761;42.680;23.312;2024-02-15T13:05:17;95151.81;;;10.82;47.31